Time;durP1;ratioP1;P1;durP2;ratioP2;P2;SDS_P1;SDS_P2;PMS_P1;PMS_P2;Temp;Humidity;BMP_temperature;BMP_pressure;BME280_temperature;BME280_humidity;BME280_pressure;Samples;Min_cycle;Max_cycle;Signal;HPM_P1;HPM_P2
2023/07/30 00:00:44;;;;;;;9.77;2.22;;;;;;;17.54;100.00;100667.34;4995845;28;20037;-80
2023/07/30 00:03:10;;;;;;;8.98;2.42;;;;;;;17.47;100.00;100659.75;5005565;28;20031;-79
2023/07/30 00:05:35;;;;;;;4.78;1.77;;;;;;;17.59;100.00;100672.50;4989630;28;20072;-81
2023/07/30 00:08:01;;;;;;;6.68;2.53;;;;;;;17.56;100.00;100664.88;5004811;28;20050;-81
2023/07/30 00:10:29;;;;;;;12.32;2.50;;;;;;;17.52;100.00;100666.16;4988252;28;20035;-81
2023/07/30 00:12:54;;;;;;;7.00;2.55;;;;;;;17.39;100.00;100660.31;5000192;28;20522;-81
2023/07/30 00:15:20;;;;;;;7.90;2.25;;;;;;;17.65;100.00;100667.16;4978385;28;20033;-80
2023/07/30 00:17:45;;;;;;;5.18;2.25;;;;;;;17.54;100.00;100675.00;4986843;28;20132;-80
2023/07/30 00:20:11;;;;;;;6.22;2.70;;;;;;;17.35;100.00;100656.75;4986946;28;20410;-80
2023/07/30 00:22:36;;;;;;;6.22;2.00;;;;;;;17.39;100.00;100672.44;4994759;28;20566;-80
2023/07/30 00:25:02;;;;;;;9.75;2.00;;;;;;;17.50;100.00;100666.59;4989824;28;20030;-80
2023/07/30 00:27:27;;;;;;;8.23;2.50;;;;;;;17.39;100.00;100663.13;5010118;28;20030;-80
2023/07/30 00:29:52;;;;;;;9.63;3.28;;;;;;;17.26;100.00;100651.63;4990419;28;20057;-79
2023/07/30 00:32:18;;;;;;;4.93;1.92;;;;;;;17.30;100.00;100665.72;4994842;28;20033;-79
2023/07/30 00:34:43;;;;;;;12.35;2.42;;;;;;;17.35;100.00;100668.88;5008680;28;20104;-79
2023/07/30 00:37:10;;;;;;;7.78;2.30;;;;;;;17.39;100.00;100665.97;4994780;28;20104;-79
2023/07/30 00:39:35;;;;;;;8.55;2.53;;;;;;;17.43;100.00;100658.22;4994153;28;20038;-79
2023/07/30 00:42:01;;;;;;;7.85;2.40;;;;;;;17.00;100.00;100661.75;5009652;28;20041;-79
2023/07/30 00:44:26;;;;;;;4.47;2.35;;;;;;;17.22;100.00;100677.16;5008355;28;20029;-79
2023/07/30 00:46:52;;;;;;;13.20;2.30;;;;;;;16.99;100.00;100657.31;4983913;28;20034;-79
2023/07/30 00:49:18;;;;;;;8.10;1.90;;;;;;;17.11;100.00;100656.72;4991199;28;20037;-79
2023/07/30 00:51:43;;;;;;;4.57;1.70;;;;;;;17.35;100.00;100670.88;4992431;28;20402;-79
2023/07/30 00:54:10;;;;;;;10.23;3.15;;;;;;;17.21;100.00;100671.94;4987011;28;20083;-79
2023/07/30 00:56:36;;;;;;;5.70;1.60;;;;;;;17.08;100.00;100663.25;5004853;28;20047;-79
2023/07/30 00:59:02;;;;;;;12.70;2.38;;;;;;;16.98;100.00;100655.72;5010315;28;20520;-79
2023/07/30 01:01:30;;;;;;;10.00;2.35;;;;;;;17.06;100.00;100677.03;4987638;28;20059;-79
2023/07/30 01:03:56;;;;;;;7.60;2.33;;;;;;;16.84;100.00;100657.56;5015364;28;20057;-79
2023/07/30 01:06:23;;;;;;;6.55;2.25;;;;;;;17.24;100.00;100674.72;4996678;28;20140;-79
2023/07/30 01:08:48;;;;;;;10.02;2.08;;;;;;;17.02;100.00;100662.13;4993534;28;20371;-79
2023/07/30 01:11:15;;;;;;;6.03;2.45;;;;;;;16.92;100.00;100677.22;4988891;28;20044;-79
2023/07/30 01:13:41;;;;;;;7.25;1.95;;;;;;;16.85;100.00;100670.44;4994203;28;20041;-79
2023/07/30 01:16:07;;;;;;;9.85;2.38;;;;;;;16.91;100.00;100679.25;4989879;28;20617;-79
2023/07/30 01:18:32;;;;;;;7.05;1.50;;;;;;;17.09;100.00;100684.63;5013561;28;20065;-79
2023/07/30 01:20:59;;;;;;;8.20;2.17;;;;;;;16.99;100.00;100682.75;5011759;28;20754;-79
2023/07/30 01:23:25;;;;;;;6.60;2.15;;;;;;;16.98;100.00;100689.66;5011368;28;21666;-79
2023/07/30 01:26:09;;;;;;;7.82;2.22;;;;;;;17.05;100.00;100683.88;4998443;28;20026;-79
2023/07/30 01:28:39;;;;;;;11.07;1.83;;;;;;;17.00;100.00;100690.03;4999820;28;20109;-79
2023/07/30 01:31:06;;;;;;;7.05;2.20;;;;;;;17.13;100.00;100688.22;4997701;28;20033;-79
2023/07/30 01:33:32;;;;;;;7.32;2.35;;;;;;;16.91;100.00;100686.91;4997976;28;20057;-79
2023/07/30 01:35:59;;;;;;;6.20;1.50;;;;;;;16.90;100.00;100694.63;4995780;28;20402;-79
2023/07/30 01:38:26;;;;;;;6.68;1.92;;;;;;;16.83;100.00;100689.88;4997668;28;20030;-79
2023/07/30 01:40:51;;;;;;;7.43;2.72;;;;;;;16.85;100.00;100681.75;4995223;28;20237;-79
2023/07/30 01:43:17;;;;;;;6.43;2.17;;;;;;;16.86;100.00;100671.25;4996111;28;20026;-79
2023/07/30 01:45:42;;;;;;;7.05;1.83;;;;;;;16.96;100.00;100700.59;5005667;28;20107;-78
2023/07/30 01:48:08;;;;;;;5.55;2.58;;;;;;;16.94;100.00;100694.56;4992539;28;20038;-79
2023/07/30 01:50:34;;;;;;;6.80;3.28;;;;;;;17.00;100.00;100692.88;4987366;28;20030;-79
2023/07/30 01:52:59;;;;;;;5.55;2.00;;;;;;;17.07;100.00;100699.19;4990829;28;20084;-79
2023/07/30 01:55:24;;;;;;;6.32;1.88;;;;;;;16.90;100.00;100694.63;5004391;28;20037;-79
2023/07/30 01:57:50;;;;;;;5.65;1.90;;;;;;;17.10;100.00;100691.91;4989394;28;20053;-79
2023/07/30 02:00:15;;;;;;;5.13;1.75;;;;;;;16.68;100.00;100677.13;4996891;28;20043;-79
2023/07/30 02:02:41;;;;;;;3.13;1.70;;;;;;;17.00;100.00;100692.88;4991752;28;20414;-79
2023/07/30 02:05:06;;;;;;;8.63;2.22;;;;;;;16.80;100.00;100684.22;4989925;28;20306;-81
2023/07/30 02:07:32;;;;;;;6.65;2.65;;;;;;;16.79;100.00;100691.91;4989162;28;20069;-80
2023/07/30 02:09:57;;;;;;;10.65;3.00;;;;;;;16.89;100.00;100695.84;4991929;28;20041;-80
2023/07/30 02:12:22;;;;;;;13.10;2.45;;;;;;;16.77;100.00;100702.84;4993108;28;20117;-80
2023/07/30 02:14:48;;;;;;;7.72;2.15;;;;;;;16.96;100.00;100686.47;5009277;28;20471;-80
2023/07/30 02:17:14;;;;;;;5.05;1.77;;;;;;;16.67;100.00;100698.13;5008418;28;21615;-79
2023/07/30 02:19:39;;;;;;;8.13;2.22;;;;;;;16.72;100.00;100694.03;5011826;28;20087;-79
2023/07/30 02:22:05;;;;;;;5.80;2.28;;;;;;;16.57;100.00;100690.59;4990383;28;20070;-79
2023/07/30 02:24:30;;;;;;;5.68;2.03;;;;;;;16.49;100.00;100703.25;5008617;28;20033;-79
2023/07/30 02:26:56;;;;;;;6.75;1.90;;;;;;;16.63;100.00;100706.69;4994149;28;20040;-79
2023/07/30 02:29:21;;;;;;;9.13;1.70;;;;;;;16.70;100.00;100696.47;5005107;28;20029;-79
2023/07/30 02:31:46;;;;;;;7.32;1.98;;;;;;;16.72;100.00;100703.34;4992405;28;20139;-79
2023/07/30 02:34:12;;;;;;;8.00;3.00;;;;;;;16.67;100.00;100698.97;4996577;28;20029;-79
2023/07/30 02:36:37;;;;;;;9.13;2.10;;;;;;;16.64;100.00;100693.34;5003245;28;20164;-79
2023/07/30 02:39:03;;;;;;;9.63;3.00;;;;;;;16.38;100.00;100692.06;5006305;28;20034;-79
2023/07/30 02:41:28;;;;;;;8.00;2.92;;;;;;;16.54;100.00;100694.28;4989256;28;20073;-79
2023/07/30 02:43:53;;;;;;;8.32;2.25;;;;;;;16.52;100.00;100685.44;5001022;28;20096;-79
2023/07/30 02:46:19;;;;;;;8.57;2.15;;;;;;;16.31;100.00;100680.84;4987282;28;20121;-79
2023/07/30 02:48:44;;;;;;;7.50;1.95;;;;;;;16.57;100.00;100693.41;5005104;28;20386;-79
2023/07/30 02:51:10;;;;;;;9.15;2.58;;;;;;;16.56;100.00;100686.19;4986912;28;20548;-79
2023/07/30 02:53:35;;;;;;;10.25;2.53;;;;;;;16.33;100.00;100687.66;4987899;28;20022;-79
2023/07/30 02:56:00;;;;;;;7.28;2.15;;;;;;;16.21;100.00;100685.41;4984275;28;20033;-79
2023/07/30 02:58:26;;;;;;;7.30;2.05;;;;;;;16.19;100.00;100696.31;4992846;28;20111;-79
2023/07/30 03:00:51;;;;;;;7.45;3.60;;;;;;;16.53;100.00;100698.31;4989812;28;20087;-79
2023/07/30 03:03:17;;;;;;;9.55;2.75;;;;;;;16.57;100.00;100693.41;4988295;28;20026;-79
2023/07/30 03:05:43;;;;;;;6.07;2.30;;;;;;;16.61;100.00;100691.34;4987016;28;20402;-79
2023/07/30 03:08:08;;;;;;;11.63;2.65;;;;;;;16.44;100.00;100685.53;4990583;28;20395;-79
2023/07/30 03:10:35;;;;;;;8.68;2.97;;;;;;;16.74;100.00;100702.88;4998913;28;20592;-79
2023/07/30 03:13:01;;;;;;;5.95;2.72;;;;;;;16.66;100.00;100699.38;4988258;28;20516;-79
2023/07/30 03:15:27;;;;;;;6.90;2.97;;;;;;;16.66;100.00;100693.72;4984775;28;20088;-79
2023/07/30 03:17:52;;;;;;;6.00;2.72;;;;;;;16.75;100.00;100699.63;4987201;28;20034;-79
2023/07/30 03:20:18;;;;;;;11.98;2.97;;;;;;;16.62;100.00;100702.25;5002753;28;20694;-79
2023/07/30 03:22:43;;;;;;;6.65;2.35;;;;;;;16.55;100.00;100698.69;4990549;28;20022;-79
2023/07/30 03:25:08;;;;;;;6.85;2.13;;;;;;;16.69;100.00;100701.34;4993684;28;20040;-79
2023/07/30 03:27:34;;;;;;;10.65;2.67;;;;;;;16.49;100.00;100706.06;4992686;28;20116;-79
2023/07/30 03:29:59;;;;;;;11.45;2.63;;;;;;;16.39;100.00;100699.31;5006444;28;20546;-79
2023/07/30 03:32:24;;;;;;;10.55;2.55;;;;;;;16.55;100.00;100696.69;5007321;28;20029;-79
2023/07/30 03:34:50;;;;;;;8.82;2.47;;;;;;;16.46;100.00;100702.03;4993447;28;20131;-79
2023/07/30 03:37:15;;;;;;;7.93;2.17;;;;;;;16.57;100.00;100704.72;4991503;28;20067;-79
2023/07/30 03:39:41;;;;;;;9.13;2.30;;;;;;;16.57;100.00;100699.91;4991745;28;20037;-79
2023/07/30 03:42:06;;;;;;;6.22;2.20;;;;;;;16.58;100.00;100706.34;4988958;28;20044;-79
2023/07/30 03:44:31;;;;;;;9.10;2.83;;;;;;;16.27;100.00;100692.19;4987131;28;20500;-79
2023/07/30 03:46:57;;;;;;;6.68;2.38;;;;;;;15.97;100.00;100692.94;4987994;28;20026;-79
2023/07/30 03:49:22;;;;;;;15.88;3.25;;;;;;;16.18;100.00;100672.94;4986669;28;20500;-79
2023/07/30 03:51:48;;;;;;;14.20;3.38;;;;;;;16.41;100.00;100691.22;4984450;28;20891;-78
2023/07/30 03:54:13;;;;;;;7.00;2.47;;;;;;;16.43;100.00;100703.69;4982627;28;20033;-79
2023/07/30 03:56:39;;;;;;;7.57;2.80;;;;;;;16.52;100.00;100685.44;4985497;28;20509;-79
2023/07/30 03:59:04;;;;;;;10.02;2.40;;;;;;;16.54;100.00;100697.09;4996948;28;20049;-79
2023/07/30 04:01:30;;;;;;;9.48;3.13;;;;;;;16.48;100.00;100710.09;4997658;28;20070;-79
2023/07/30 04:03:56;;;;;;;8.13;2.20;;;;;;;16.07;100.00;100679.94;4987078;28;20034;-79
2023/07/30 04:06:21;;;;;;;12.13;3.22;;;;;;;16.21;100.00;100700.34;4989130;28;20065;-78
2023/07/30 04:08:46;;;;;;;12.02;2.70;;;;;;;16.26;100.00;100701.91;4992822;28;20037;-78
2023/07/30 04:11:12;;;;;;;8.60;2.03;;;;;;;16.44;100.00;100708.13;4992210;28;20038;-78
2023/07/30 04:13:37;;;;;;;9.88;2.38;;;;;;;16.59;100.00;100696.63;5000709;28;20030;-79
2023/07/30 04:16:03;;;;;;;11.13;3.00;;;;;;;16.37;100.00;100699.72;4986972;28;20038;-80
2023/07/30 04:18:28;;;;;;;14.73;3.85;;;;;;;16.35;100.00;100707.81;5003234;28;20029;-80
2023/07/30 04:20:57;;;;;;;9.65;2.53;;;;;;;16.39;100.00;100699.31;5000345;28;20034;-80
2023/07/30 04:23:22;;;;;;;12.20;4.35;;;;;;;16.16;100.00;100708.47;4995203;28;20465;-80
2023/07/30 04:25:51;;;;;;;10.73;3.42;;;;;;;16.39;100.00;100705.75;4993476;28;20038;-80
2023/07/30 04:28:17;;;;;;;12.07;3.15;;;;;;;16.36;100.00;100700.16;4992731;28;20049;-80
2023/07/30 04:30:43;;;;;;;11.02;3.35;;;;;;;16.42;100.00;100704.09;4991864;28;20164;-79
2023/07/30 04:33:08;;;;;;;15.60;3.35;;;;;;;16.36;100.00;100708.63;4996056;28;20037;-80
2023/07/30 04:35:33;;;;;;;10.55;2.80;;;;;;;16.41;100.00;100711.78;4993719;28;20422;-80
2023/07/30 04:37:59;;;;;;;8.20;2.53;;;;;;;16.51;100.00;100718.53;4994515;28;20727;-80
2023/07/30 04:40:24;;;;;;;8.38;2.88;;;;;;;16.45;100.00;100708.94;5006325;28;20042;-80
2023/07/30 04:42:49;;;;;;;11.45;4.00;;;;;;;16.37;100.00;100705.38;4995563;28;20025;-80
2023/07/30 04:45:15;;;;;;;14.75;3.83;;;;;;;16.33;100.00;100696.16;4991761;28;20042;-80
2023/07/30 04:47:40;;;;;;;18.38;2.72;;;;;;;16.51;100.00;100692.28;4990209;28;20133;-80
2023/07/30 04:50:06;;;;;;;13.00;3.13;;;;;;;16.40;100.00;100690.44;4998916;28;20116;-80
2023/07/30 04:52:31;;;;;;;9.65;3.13;;;;;;;16.34;100.00;100702.59;5013619;28;20045;-79
2023/07/30 04:54:57;;;;;;;14.65;3.53;;;;;;;16.25;100.00;100705.94;4997316;28;20350;-80
2023/07/30 04:57:22;;;;;;;11.13;4.32;;;;;;;16.31;100.00;100717.56;5006621;28;20030;-80
2023/07/30 04:59:47;;;;;;;16.67;3.30;;;;;;;16.32;100.00;100700.22;5007585;28;20041;-80
2023/07/30 05:02:13;;;;;;;9.80;3.63;;;;;;;16.44;100.00;100719.44;4998873;28;20103;-79
2023/07/30 05:04:38;;;;;;;9.25;2.80;;;;;;;16.35;100.00;100702.19;4996706;28;20030;-80
2023/07/30 05:07:04;;;;;;;8.95;3.30;;;;;;;16.44;100.00;100708.13;4993546;28;20524;-80
2023/07/30 05:09:29;;;;;;;10.98;3.17;;;;;;;16.70;100.00;100728.38;5015761;28;20505;-80
2023/07/30 05:11:55;;;;;;;11.38;3.38;;;;;;;16.69;100.00;100723.94;5003694;28;20065;-80
2023/07/30 05:14:20;;;;;;;7.05;2.80;;;;;;;16.52;100.00;100716.50;5001915;28;20465;-80
2023/07/30 05:16:46;;;;;;;11.77;3.50;;;;;;;16.31;100.00;100714.75;4998808;28;20033;-80
2023/07/30 05:19:11;;;;;;;9.55;3.47;;;;;;;16.56;100.00;100720.09;5001630;28;20030;-80
2023/07/30 05:21:37;;;;;;;12.27;3.72;;;;;;;16.57;100.00;100735.81;5001805;28;20495;-81
2023/07/30 05:24:02;;;;;;;11.05;3.63;;;;;;;16.62;100.00;100741.00;5008082;28;20087;-80
2023/07/30 05:26:28;;;;;;;17.10;3.58;;;;;;;16.55;100.00;100741.06;4996466;28;20037;-81
2023/07/30 05:28:53;;;;;;;8.93;3.20;;;;;;;16.75;100.00;100750.50;4997886;28;20067;-80
2023/07/30 05:31:19;;;;;;;18.02;2.85;;;;;;;16.65;100.00;100728.84;5018926;28;20029;-80
2023/07/30 05:33:44;;;;;;;12.65;3.45;;;;;;;16.67;100.00;100738.53;5003432;28;20477;-80
2023/07/30 05:36:09;;;;;;;13.55;3.05;;;;;;;16.64;100.00;100733.69;5007363;28;20061;-80
2023/07/30 05:38:35;;;;;;;10.23;2.65;;;;;;;16.70;100.00;100745.34;5004644;28;20395;-80
2023/07/30 05:41:00;;;;;;;12.02;2.63;;;;;;;16.73;100.00;100740.88;5006291;28;20413;-80
2023/07/30 05:43:26;;;;;;;11.30;3.63;;;;;;;16.74;100.00;100748.94;5007763;28;20061;-81
2023/07/30 05:45:51;;;;;;;15.10;3.90;;;;;;;16.82;100.00;100744.81;4996682;28;20034;-80
2023/07/30 05:48:16;;;;;;;14.27;3.10;;;;;;;16.82;100.00;100749.66;5001377;28;20095;-80
2023/07/30 05:50:42;;;;;;;10.82;3.15;;;;;;;16.68;100.00;100739.31;5000353;28;20037;-80
2023/07/30 05:53:07;;;;;;;13.10;4.95;;;;;;;16.76;100.00;100748.47;4995545;28;20045;-80
2023/07/30 05:55:33;;;;;;;12.90;3.22;;;;;;;16.75;100.00;100753.34;4992659;28;20021;-80
2023/07/30 05:57:58;;;;;;;11.50;3.22;;;;;;;16.81;100.00;100743.19;4989814;28;20390;-80
2023/07/30 06:00:24;;;;;;;13.70;3.78;;;;;;;17.05;100.00;100751.75;4997545;28;20029;-80
2023/07/30 06:02:49;;;;;;;8.52;3.13;;;;;;;17.06;100.00;100747.72;4995515;28;20033;-80
2023/07/30 06:05:15;;;;;;;19.40;3.78;;;;;;;16.83;100.00;100740.75;4998108;28;20100;-80
2023/07/30 06:07:40;;;;;;;15.13;3.95;;;;;;;17.09;100.00;100751.72;4992839;28;20050;-80
2023/07/30 06:10:06;;;;;;;18.30;3.63;;;;;;;17.09;100.00;100755.34;4999465;28;20088;-80
2023/07/30 06:12:31;;;;;;;11.63;4.03;;;;;;;17.15;100.00;100755.66;4994883;28;20026;-79
2023/07/30 06:14:56;;;;;;;18.55;3.80;;;;;;;17.11;100.00;100752.09;4997372;28;20026;-81
2023/07/30 06:17:22;;;;;;;16.27;4.47;;;;;;;17.16;100.00;100745.94;4992382;28;20022;-81
2023/07/30 06:19:47;;;;;;;13.95;4.32;;;;;;;17.23;100.00;100743.81;4990684;28;20375;-81
2023/07/30 06:22:13;;;;;;;19.70;5.32;;;;;;;17.32;100.00;100754.59;4981814;28;20156;-80
2023/07/30 06:24:38;;;;;;;11.98;4.32;;;;;;;17.32;100.00;100743.28;5003257;28;20096;-80
2023/07/30 06:27:04;;;;;;;16.38;5.25;;;;;;;17.37;100.00;100750.47;5007296;28;20493;-80
2023/07/30 06:29:29;;;;;;;17.88;4.70;;;;;;;17.45;100.00;100749.13;5005130;28;20026;-81
2023/07/30 06:31:55;;;;;;;23.95;6.93;;;;;;;17.46;100.00;100742.25;5006424;28;20018;-81
2023/07/30 06:34:20;;;;;;;13.90;5.07;;;;;;;17.57;100.00;100754.19;5007568;28;20037;-81
2023/07/30 06:36:46;;;;;;;10.45;3.95;;;;;;;17.51;100.00;100761.56;5007061;28;20021;-80
2023/07/30 06:39:11;;;;;;;12.80;4.72;;;;;;;17.52;100.00;100754.69;5007359;28;20437;-80
2023/07/30 06:41:37;;;;;;;17.33;5.57;;;;;;;17.53;100.00;100747.78;5006469;28;20037;-80
2023/07/30 06:44:02;;;;;;;17.30;5.22;;;;;;;17.67;100.00;100756.06;5004319;28;20031;-80
2023/07/30 06:46:27;;;;;;;14.40;4.80;;;;;;;17.79;100.00;100760.31;5004014;28;20026;-80
2023/07/30 06:48:53;;;;;;;10.45;3.65;;;;;;;17.78;100.00;100757.91;5007820;28;20033;-80
2023/07/30 06:51:20;;;;;;;13.13;4.75;;;;;;;17.72;100.00;100759.63;5006745;28;20141;-81
2023/07/30 06:53:45;;;;;;;14.27;4.45;;;;;;;17.76;100.00;100749.03;5007007;28;20401;-81
2023/07/30 06:56:11;;;;;;;9.15;4.13;;;;;;;17.79;100.00;100742.50;5006032;28;20026;-81
2023/07/30 06:58:36;;;;;;;8.77;3.17;;;;;;;17.82;100.00;100744.47;5008502;28;20018;-79
2023/07/30 07:01:02;;;;;;;11.38;4.03;;;;;;;17.66;100.00;100745.94;5006642;28;20101;-80
2023/07/30 07:03:27;;;;;;;15.82;3.58;;;;;;;17.76;100.00;100760.34;5014646;28;20057;-80
2023/07/30 07:05:54;;;;;;;13.38;3.47;;;;;;;17.80;100.00;100761.09;5007208;28;20030;-79
2023/07/30 07:08:20;;;;;;;18.70;4.32;;;;;;;17.77;100.00;100761.94;5013845;28;20520;-79
2023/07/30 07:10:45;;;;;;;11.93;3.30;;;;;;;17.78;100.00;100766.41;5006003;28;20034;-79
2023/07/30 07:13:14;;;;;;;8.88;3.70;;;;;;;17.84;100.00;100762.66;5003538;28;20026;-80
2023/07/30 07:15:44;;;;;;;14.32;3.42;;;;;;;17.83;100.00;100761.06;5000769;28;20018;-80
2023/07/30 07:18:10;;;;;;;9.95;2.97;;;;;;;17.89;100.00;100761.38;5018547;28;20025;-80
2023/07/30 07:20:36;;;;;;;10.10;3.47;;;;;;;17.93;100.00;100767.75;4997979;28;20116;-80
2023/07/30 07:23:02;;;;;;;9.93;3.05;;;;;;;17.96;100.00;100769.75;5004810;28;20034;-80
2023/07/30 07:25:27;;;;;;;14.60;4.80;;;;;;;17.74;100.00;100745.84;5003266;28;20072;-80
2023/07/30 07:27:53;;;;;;;16.33;3.58;;;;;;;17.93;100.00;100761.31;5002463;28;20034;-80
2023/07/30 07:30:18;;;;;;;31.23;6.13;;;;;;;17.88;100.00;100746.41;5001188;28;20851;-80
2023/07/30 07:32:44;;;;;;;14.45;5.07;;;;;;;18.04;100.00;100771.19;4999667;28;20029;-80
2023/07/30 07:35:10;;;;;;;12.20;4.03;;;;;;;18.03;100.00;100769.63;5003824;28;20092;-81
2023/07/30 07:37:35;;;;;;;7.95;3.83;;;;;;;18.12;100.00;100773.91;5004962;28;20575;-81
2023/07/30 07:40:02;;;;;;;18.00;5.68;;;;;;;18.11;100.00;100770.28;5004540;28;20042;-81
2023/07/30 07:42:29;;;;;;;13.00;5.97;;;;;;;18.14;100.00;100771.44;5008408;28;20034;-81
2023/07/30 07:44:55;;;;;;;10.45;4.53;;;;;;;18.18;100.00;100766.53;5018674;28;20502;-81
2023/07/30 07:47:20;;;;;;;15.15;6.50;;;;;;;18.27;100.00;100772.41;5004423;28;20120;-82
2023/07/30 07:49:46;;;;;;;15.13;5.53;;;;;;;18.33;100.00;100764.22;5019466;28;20117;-81
2023/07/30 07:52:11;;;;;;;10.65;4.72;;;;;;;18.35;100.00;100747.59;5001964;28;20061;-81
2023/07/30 07:54:36;;;;;;;11.45;4.93;;;;;;;18.19;100.00;100751.91;5005089;28;20515;-81
2023/07/30 07:57:02;;;;;;;10.25;3.63;;;;;;;18.41;100.00;100777.00;4997584;28;20072;-81
2023/07/30 07:59:28;;;;;;;9.95;5.32;;;;;;;18.35;100.00;100767.41;5019880;28;20406;-82
2023/07/30 08:01:53;;;;;;;14.18;5.65;;;;;;;18.27;100.00;100783.75;5001061;28;20033;-81
2023/07/30 08:04:21;;;;;;;7.75;4.32;;;;;;;18.24;100.00;100756.28;5003766;28;20022;-81
2023/07/30 08:06:46;;;;;;;14.60;5.25;;;;;;;18.15;100.00;100770.22;5022476;28;20415;-82
2023/07/30 08:09:12;;;;;;;13.65;4.90;;;;;;;18.32;100.00;100774.75;5005595;28;20129;-81
2023/07/30 08:11:37;;;;;;;19.88;5.75;;;;;;;18.27;100.00;100766.75;5020662;28;20394;-82
2023/07/30 08:14:03;;;;;;;8.98;4.60;;;;;;;18.20;100.00;100766.88;4990374;28;20025;-82
2023/07/30 08:16:28;;;;;;;15.50;5.10;;;;;;;18.21;100.00;100765.63;5006367;28;20064;-82
2023/07/30 08:18:54;;;;;;;12.40;4.82;;;;;;;18.27;100.00;100767.53;4992744;28;20022;-81
2023/07/30 08:21:20;;;;;;;15.70;5.35;;;;;;;18.24;100.00;100768.41;5003283;28;20566;-81
2023/07/30 08:23:47;;;;;;;13.68;4.82;;;;;;;18.17;100.00;100767.75;5005885;28;20133;-81
2023/07/30 08:26:13;;;;;;;10.13;5.07;;;;;;;18.00;100.00;100750.63;5005998;28;20408;-80
2023/07/30 08:28:40;;;;;;;15.07;4.75;;;;;;;18.12;100.00;100759.75;5005594;28;20026;-81
2023/07/30 08:31:05;;;;;;;14.18;4.30;;;;;;;18.10;100.00;100756.56;5006448;28;20040;-81
2023/07/30 08:33:31;;;;;;;9.27;4.85;;;;;;;17.96;100.00;100747.09;5006288;28;20026;-81
2023/07/30 08:35:57;;;;;;;12.45;4.10;;;;;;;18.05;100.00;100730.31;5000535;28;20307;-81
2023/07/30 08:38:23;;;;;;;9.00;4.10;;;;;;;18.06;100.00;100742.44;5006092;28;20520;-81
2023/07/30 08:40:48;;;;;;;8.10;3.80;;;;;;;18.06;100.00;100746.06;5005147;28;20061;-81
2023/07/30 08:43:14;;;;;;;11.25;4.57;;;;;;;17.98;100.00;100736.13;5005643;28;20545;-81
2023/07/30 08:45:39;;;;;;;18.63;4.53;;;;;;;18.12;100.00;100751.25;5006142;28;20022;-81
2023/07/30 08:48:05;;;;;;;7.93;4.10;;;;;;;18.02;100.00;100739.69;5005924;28;20105;-81
2023/07/30 08:50:32;;;;;;;11.10;3.90;;;;;;;18.00;100.00;100753.47;5005910;28;20030;-82
2023/07/30 08:52:59;;;;;;;12.05;3.95;;;;;;;17.84;100.00;100747.72;4999756;28;20037;-81
2023/07/30 08:55:26;;;;;;;14.15;3.85;;;;;;;17.97;100.00;100751.50;4993226;28;20626;-81
2023/07/30 08:57:53;;;;;;;15.73;4.28;;;;;;;18.10;100.00;100773.53;5005768;28;20023;-81
2023/07/30 09:00:24;;;;;;;9.77;3.63;;;;;;;18.16;100.00;100760.50;4998764;28;20026;-80
2023/07/30 09:02:53;;;;;;;12.98;4.95;;;;;;;18.15;100.00;100773.03;5009629;28;20045;-82
2023/07/30 09:05:20;;;;;;;9.40;3.88;;;;;;;18.08;100.00;100754.94;5016934;28;20040;-81
2023/07/30 09:07:45;;;;;;;14.73;4.78;;;;;;;18.11;100.00;100766.63;5020016;28;20383;-81
2023/07/30 09:10:12;;;;;;;10.68;3.90;;;;;;;18.07;100.00;100761.84;5025497;28;20048;-82
2023/07/30 09:12:37;;;;;;;15.70;4.47;;;;;;;18.15;100.00;100770.22;5005193;28;20045;-82
2023/07/30 09:15:06;;;;;;;11.07;3.92;;;;;;;18.09;100.00;100761.44;5009026;28;20071;-81
2023/07/30 09:17:33;;;;;;;10.02;4.28;;;;;;;18.13;100.00;100775.50;4999459;28;20032;-81
2023/07/30 09:19:59;;;;;;;12.57;4.82;;;;;;;18.19;100.00;100773.78;5023546;28;20703;-81
2023/07/30 09:22:33;;;;;;;9.30;4.43;;;;;;;18.17;100.00;100773.41;4999816;28;20030;-81
2023/07/30 09:25:00;;;;;;;12.15;6.18;;;;;;;18.14;100.00;100783.56;5021711;28;20138;-81
2023/07/30 09:27:26;;;;;;;9.45;3.40;;;;;;;18.17;100.00;100784.72;5009551;28;20352;-81
2023/07/30 09:29:56;;;;;;;7.60;3.05;;;;;;;18.26;100.00;100793.50;5005946;28;20034;-82
2023/07/30 09:32:34;;;;;;;8.32;3.20;;;;;;;18.25;100.00;100792.66;5023472;28;20026;-82
2023/07/30 09:35:10;;;;;;;13.40;3.28;;;;;;;18.08;100.00;100814.41;5006213;28;20100;-83
2023/07/30 09:37:40;;;;;;;4.80;2.70;;;;;;;18.06;100.00;100787.75;5023432;28;20394;-82
2023/07/30 09:40:12;;;;;;;5.90;2.20;;;;;;;18.40;100.00;100810.19;5008871;28;20096;-82
2023/07/30 09:42:39;;;;;;;8.63;2.70;;;;;;;18.85;100.00;100806.91;5013407;28;20117;-82
2023/07/30 09:45:08;;;;;;;11.05;2.85;;;;;;;18.99;100.00;100800.13;5007673;28;20053;-81
2023/07/30 09:47:35;;;;;;;8.80;2.70;;;;;;;19.16;100.00;100803.81;5024296;28;20100;-82
2023/07/30 09:50:01;;;;;;;8.32;2.78;;;;;;;18.98;100.00;100815.56;5026235;28;20386;-82
2023/07/30 09:52:27;;;;;;;11.30;3.40;;;;;;;18.94;100.00;100816.88;5007377;28;20030;-82
2023/07/30 09:54:53;;;;;;;4.68;2.25;;;;;;;18.84;100.00;100815.84;5008332;28;20123;-81
2023/07/30 09:57:18;;;;;;;7.07;2.72;;;;;;;18.65;100.00;100815.38;5007659;28;20064;-82
2023/07/30 09:59:44;;;;;;;9.32;2.85;;;;;;;18.62;100.00;100816.25;5005056;28;20048;-82
2023/07/30 10:02:11;;;;;;;10.35;3.00;;;;;;;18.52;100.00;100819.31;5004858;28;20544;-82
2023/07/30 10:04:42;;;;;;;6.32;2.50;;;;;;;18.62;100.00;100812.63;5008118;28;20037;-81
2023/07/30 10:07:18;;;;;;;10.15;3.95;;;;;;;18.70;100.00;100822.59;5004042;28;20042;-82
2023/07/30 10:09:47;;;;;;;8.68;2.58;;;;;;;18.55;100.00;100813.59;5007482;28;20157;-82
2023/07/30 10:12:17;;;;;;;8.98;2.17;;;;;;;18.55;100.00;100826.94;5023763;28;20065;-81
2023/07/30 10:14:44;;;;;;;13.38;2.00;;;;;;;18.74;100.00;100833.84;5006565;28;20101;-82
2023/07/30 10:17:11;;;;;;;7.78;1.92;;;;;;;18.84;100.00;100841.38;4997952;28;20017;-82
2023/07/30 10:19:36;;;;;;;10.70;2.15;;;;;;;18.70;100.00;100842.44;5009096;28;20125;-82
2023/07/30 10:22:11;;;;;;;5.28;2.13;;;;;;;18.99;100.00;100844.72;5005760;28;20482;-82
2023/07/30 10:24:37;;;;;;;8.32;2.30;;;;;;;19.20;100.00;100840.63;5021663;28;20033;-82
2023/07/30 10:27:08;;;;;;;8.98;2.17;;;;;;;19.49;100.00;100832.28;5006335;28;20371;-82
2023/07/30 10:29:41;;;;;;;10.82;2.45;;;;;;;19.80;99.31;100840.50;4991205;28;20042;-82
2023/07/30 10:32:07;;;;;;;5.63;2.28;;;;;;;19.64;95.93;100850.56;5001119;28;20034;-81
2023/07/30 10:34:48;;;;;;;4.25;1.92;;;;;;;19.94;96.13;100848.66;5023589;28;20570;-83
2023/07/30 10:37:25;;;;;;;6.97;2.03;;;;;;;19.82;96.96;100847.34;5007518;28;20567;-83
2023/07/30 10:39:50;;;;;;;8.93;2.15;;;;;;;19.93;96.17;100849.91;4998436;28;20022;-81
2023/07/30 10:42:18;;;;;;;7.18;1.55;;;;;;;20.24;96.91;100855.25;5007665;28;20376;-82
2023/07/30 10:44:45;;;;;;;5.90;1.40;;;;;;;20.27;93.54;100852.28;5006441;28;20025;-83
2023/07/30 10:47:11;;;;;;;11.20;2.20;;;;;;;20.73;90.63;100855.16;5010391;28;20117;-83
2023/07/30 10:49:48;;;;;;;5.47;1.70;;;;;;;20.51;90.97;100843.53;5006623;28;20406;-83
2023/07/30 10:52:13;;;;;;;4.55;1.60;;;;;;;20.80;89.28;100854.16;5023334;28;20084;-83
2023/07/30 10:54:39;;;;;;;6.43;1.67;;;;;;;20.02;92.30;100846.44;5017670;28;20034;-83
2023/07/30 10:57:04;;;;;;;5.90;1.67;;;;;;;20.38;93.23;100849.16;5002406;28;20029;-83
2023/07/30 10:59:36;;;;;;;7.15;2.17;;;;;;;20.65;91.22;100848.84;5005162;28;20513;-83
2023/07/30 11:02:02;;;;;;;3.90;1.02;;;;;;;20.41;91.60;100842.59;5004085;28;20057;-83
2023/07/30 11:04:28;;;;;;;7.57;1.73;;;;;;;20.65;91.68;100856.59;4989050;28;20403;-82
2023/07/30 11:06:54;;;;;;;7.05;1.63;;;;;;;20.37;85.57;100861.00;4989917;28;20077;-82
2023/07/30 11:09:25;;;;;;;9.00;1.42;;;;;;;20.13;85.91;100844.13;4990264;28;20131;-83